createdAt,value
2019-05-01T00:02:04.405Z,22.03
2019-05-01T00:06:14.804Z,22.73
2019-05-01T00:10:24.138Z,21.87
2019-05-01T00:14:32.639Z,21.07
2019-05-01T00:18:41.127Z,22.60
2019-05-01T00:22:49.580Z,22.67
2019-05-01T00:26:58.079Z,22.47
2019-05-01T00:31:06.554Z,22.90
2019-05-01T00:35:15.040Z,21.53
2019-05-01T00:39:23.782Z,22.73
2019-05-01T00:43:32.266Z,23.57
2019-05-01T00:47:40.775Z,21.50
2019-05-01T00:51:49.265Z,20.65
2019-05-01T00:56:11.343Z,20.67
2019-05-01T01:00:24.178Z,18.70
2019-05-01T01:04:32.673Z,20.67
2019-05-01T01:08:41.190Z,20.13
2019-05-01T01:12:49.669Z,20.63
2019-05-01T01:16:58.143Z,21.30
2019-05-01T01:21:06.603Z,22.63
2019-05-01T01:25:15.378Z,20.23
2019-05-01T01:29:23.856Z,20.57
2019-05-01T01:33:32.340Z,20.30
2019-05-01T01:37:40.818Z,20.93
2019-05-01T01:41:49.374Z,21.77
2019-05-01T01:46:02.138Z,21.20
2019-05-01T01:50:10.647Z,22.73
2019-05-01T01:54:19.366Z,21.63
2019-05-01T01:58:28.206Z,22.43
2019-05-01T02:02:41.034Z,22.53
2019-05-01T02:06:50.856Z,20.47
2019-05-01T02:10:59.883Z,22.50
2019-05-01T02:15:08.495Z,20.30
2019-05-01T02:19:16.976Z,21.10
2019-05-01T02:23:25.676Z,22.48
2019-05-01T02:27:41.557Z,23.30
2019-05-01T02:31:53.007Z,20.80
2019-05-01T02:36:02.523Z,22.73
2019-05-01T02:40:30.787Z,22.90
2019-05-01T02:44:42.601Z,22.23
2019-05-01T02:49:08.961Z,22.07
2019-05-01T02:53:19.980Z,22.23
2019-05-01T02:57:29.753Z,24.90
2019-05-01T03:01:46.986Z,26.17
2019-05-01T03:05:49.459Z,24.63
2019-05-01T03:09:58.072Z,28.13
2019-05-01T03:14:09.862Z,26.37
2019-05-01T03:18:24.323Z,26.07
2019-05-01T03:22:35.042Z,27.13
2019-05-01T03:26:43.825Z,26.37
2019-05-01T03:30:52.296Z,30.00
2019-05-01T03:35:00.836Z,40.40
2019-05-01T03:39:09.388Z,40.47
2019-05-01T03:43:17.966Z,43.27
2019-05-01T03:47:26.798Z,39.00
2019-05-01T03:51:36.461Z,39.10
2019-05-01T03:55:45.422Z,30.67
2019-05-01T03:59:53.942Z,25.80
2019-05-01T04:08:21.091Z,44.87
2019-05-01T04:12:29.609Z,42.90
2019-05-01T04:16:39.409Z,39.63
2019-05-01T04:20:48.019Z,38.83
2019-05-01T04:24:56.563Z,35.20
2019-05-01T04:29:07.075Z,31.90
2019-05-01T04:33:17.529Z,35.23
2019-05-01T04:37:26.622Z,29.93
2019-05-01T04:41:35.835Z,31.00
2019-05-01T04:45:44.303Z,30.43
2019-05-01T04:49:53.315Z,38.37
2019-05-01T04:54:02.001Z,36.27
2019-05-01T04:58:11.638Z,37.50
2019-05-01T05:02:24.845Z,32.20
2019-05-01T05:06:33.395Z,26.70
2019-05-01T05:10:42.096Z,26.57
2019-05-01T05:14:55.436Z,24.77
2019-05-01T05:19:03.988Z,26.70
2019-05-01T05:23:12.703Z,25.30
2019-05-01T05:27:21.713Z,26.70
2019-05-01T05:31:30.798Z,27.20
2019-05-01T05:35:41.110Z,32.97
2019-05-01T05:39:51.226Z,26.90
2019-05-01T05:44:20.575Z,30.90
2019-05-01T05:48:29.019Z,27.73
2019-05-01T05:52:39.262Z,29.63
2019-05-01T05:56:51.211Z,28.17
2019-05-01T06:01:06.827Z,27.70
2019-05-01T06:05:37.566Z,35.70
2019-05-01T06:09:50.494Z,31.87
2019-05-01T06:14:04.711Z,33.50
2019-05-01T06:18:20.415Z,33.90
2019-05-01T06:22:34.416Z,34.60
2019-05-01T06:26:43.115Z,36.70
2019-05-01T06:30:51.584Z,40.40
2019-05-01T06:35:03.039Z,34.23
2019-05-01T06:39:11.762Z,35.03
2019-05-01T06:43:28.675Z,32.30
2019-05-01T06:47:43.159Z,34.03
2019-05-01T06:51:53.382Z,34.47
2019-05-01T06:56:01.472Z,33.90
2019-05-01T07:00:13.244Z,33.60
2019-05-01T07:04:22.096Z,28.97
2019-05-01T07:08:34.188Z,31.17
2019-05-01T07:12:41.151Z,27.67
2019-05-01T07:16:50.025Z,31.70
2019-05-01T07:20:58.559Z,27.10
2019-05-01T07:25:09.234Z,32.93
2019-05-01T07:29:19.355Z,31.95
2019-05-01T07:33:28.835Z,32.10
2019-05-01T07:37:37.693Z,33.87
2019-05-01T07:41:46.587Z,30.80
2019-05-01T07:45:56.878Z,30.47
2019-05-01T07:50:08.446Z,26.70
2019-05-01T07:54:17.239Z,26.37
2019-05-01T07:58:25.910Z,28.00
2019-05-01T08:02:34.388Z,27.87
2019-05-01T08:06:42.878Z,28.80
2019-05-01T08:10:51.364Z,31.60
2019-05-01T08:14:59.869Z,28.07
2019-05-01T08:19:18.847Z,27.40
2019-05-01T08:23:27.326Z,30.57
2019-05-01T08:27:37.467Z,29.63
2019-05-01T08:31:50.090Z,27.27
2019-05-01T08:36:17.914Z,26.90
2019-05-01T08:40:26.399Z,26.50
2019-05-01T08:44:36.512Z,26.57
2019-05-01T08:48:46.699Z,31.30
2019-05-01T08:52:55.181Z,26.93
2019-05-01T08:57:03.839Z,28.83
2019-05-01T09:01:15.081Z,32.87
2019-05-01T09:05:28.717Z,30.97
2019-05-01T09:09:33.872Z,28.03
2019-05-01T09:13:42.992Z,31.40
2019-05-01T09:17:51.792Z,30.90
2019-05-01T09:22:00.634Z,28.60
2019-05-01T09:26:16.107Z,28.30
2019-05-01T09:30:26.971Z,29.50
2019-05-01T09:34:35.798Z,31.57
2019-05-01T09:38:44.319Z,30.90
2019-05-01T09:42:54.631Z,31.17
2019-05-01T09:47:03.075Z,30.80
2019-05-01T09:51:28.159Z,29.00
2019-05-01T09:55:38.278Z,31.30
2019-05-01T09:59:46.771Z,30.30
2019-05-01T10:03:56.454Z,30.13
2019-05-01T10:08:05.461Z,31.20
2019-05-01T10:12:14.063Z,32.93
2019-05-01T10:16:22.783Z,29.77
2019-05-01T10:20:31.366Z,31.90
2019-05-01T10:24:39.827Z,33.25
2019-05-01T10:28:51.528Z,34.43
2019-05-01T10:33:04.937Z,34.23
2019-05-01T10:37:13.423Z,31.13
2019-05-01T10:41:21.909Z,33.20
2019-05-01T10:45:50.146Z,29.60
2019-05-01T10:49:58.630Z,30.80
2019-05-01T10:54:07.082Z,28.70
2019-05-01T10:58:17.976Z,28.03
2019-05-01T11:02:25.783Z,31.23
2019-05-01T11:06:34.385Z,31.80
2019-05-01T11:10:42.883Z,31.57
2019-05-01T11:14:51.388Z,30.90
2019-05-01T11:18:59.855Z,30.07
2019-05-01T11:23:08.306Z,31.10
2019-05-01T11:27:16.851Z,29.53
2019-05-01T11:31:36.167Z,30.03
2019-05-01T11:36:08.353Z,31.40
2019-05-01T11:40:24.248Z,30.10
2019-05-01T11:44:32.744Z,32.10
2019-05-01T11:48:44.256Z,33.20
2019-05-01T11:53:03.798Z,30.50
2019-05-01T11:57:12.766Z,31.83
2019-05-01T12:01:22.873Z,33.03
2019-05-01T12:05:31.348Z,32.37
2019-05-01T12:09:40.063Z,30.40
2019-05-01T12:13:48.550Z,31.40
2019-05-01T12:17:56.994Z,32.20
2019-05-01T12:22:05.469Z,30.60
2019-05-01T12:26:13.976Z,34.20
2019-05-01T12:30:22.992Z,31.50
2019-05-01T12:34:31.479Z,29.17
2019-05-01T12:38:39.973Z,32.63
2019-05-01T12:42:48.527Z,32.60
2019-05-01T12:47:13.929Z,31.80
2019-05-01T12:51:22.424Z,32.13
2019-05-01T12:55:32.538Z,33.77
2019-05-01T12:59:41.026Z,33.33
2019-05-01T13:03:49.520Z,31.40
2019-05-01T13:07:58.006Z,32.90
2019-05-01T13:12:06.570Z,32.43
2019-05-01T13:16:15.073Z,34.30
2019-05-01T13:20:23.518Z,34.10
2019-05-01T13:24:51.358Z,35.10
2019-05-01T13:29:01.484Z,35.13
2019-05-01T13:33:10.031Z,35.50
2019-05-01T13:37:18.501Z,32.90
2019-05-01T13:41:27.004Z,33.77
2019-05-01T13:45:35.571Z,31.20
2019-05-01T13:49:44.104Z,35.10
2019-05-01T13:53:52.588Z,34.00
2019-05-01T13:58:01.081Z,34.60
2019-05-01T14:02:09.897Z,34.63
2019-05-01T14:06:18.385Z,33.83
2019-05-01T14:10:26.995Z,33.50
2019-05-01T14:14:35.485Z,32.00
2019-05-01T14:18:43.934Z,35.47
2019-05-01T14:22:54.091Z,36.40
2019-05-01T14:27:02.546Z,34.47
2019-05-01T14:31:11.115Z,35.90
2019-05-01T14:35:19.842Z,33.80
2019-05-01T14:39:28.567Z,33.10
2019-05-01T14:43:37.056Z,36.13
2019-05-01T14:47:45.527Z,38.20
2019-05-01T14:51:54.014Z,35.70
2019-05-01T14:56:02.525Z,37.73
2019-05-01T15:00:11.746Z,33.87
2019-05-01T15:04:20.313Z,36.23
2019-05-01T15:08:28.803Z,39.07
2019-05-01T15:12:37.324Z,36.80
2019-05-01T15:16:49.885Z,31.80
2019-05-01T15:21:19.328Z,36.30
2019-05-01T15:25:27.806Z,38.63
2019-05-01T15:29:36.624Z,37.80
2019-05-01T15:33:45.108Z,37.77
2019-05-01T15:37:56.825Z,36.37
2019-05-01T15:42:11.287Z,37.57
2019-05-01T15:46:23.434Z,39.27
2019-05-01T15:50:32.186Z,39.90
2019-05-01T15:54:40.672Z,37.93
2019-05-01T15:58:49.170Z,38.37
2019-05-01T16:02:57.880Z,36.87
2019-05-01T16:07:06.712Z,38.00
2019-05-01T16:11:31.819Z,37.80
2019-05-01T16:15:40.379Z,39.47
2019-05-01T16:19:48.858Z,39.20
2019-05-01T16:23:57.342Z,38.30
2019-05-01T16:28:05.790Z,37.70
2019-05-01T16:32:14.279Z,37.67
2019-05-01T16:36:22.741Z,37.33
2019-05-01T16:40:38.464Z,34.43
2019-05-01T16:44:46.919Z,41.33
2019-05-01T16:48:55.405Z,37.93
2019-05-01T16:53:03.958Z,38.00
2019-05-01T16:57:13.846Z,36.70
2019-05-01T17:01:24.310Z,38.07
2019-05-01T17:10:14.465Z,37.40
2019-05-01T17:14:23.109Z,40.13
2019-05-01T17:18:31.667Z,38.93
2019-05-01T17:22:40.166Z,36.03
2019-05-01T17:26:53.536Z,38.37
2019-05-01T17:31:02.032Z,36.97
2019-05-01T17:35:10.591Z,35.30
2019-05-01T17:39:19.301Z,35.60
2019-05-01T17:43:27.824Z,35.87
2019-05-01T17:47:36.275Z,37.83
2019-05-01T17:51:46.313Z,37.17
2019-05-01T17:55:55.271Z,40.70
2019-05-01T18:00:08.003Z,36.60
2019-05-01T18:04:27.331Z,39.03
2019-05-01T18:08:35.827Z,40.03
2019-05-01T18:12:44.559Z,39.20
2019-05-01T18:16:53.531Z,37.00
2019-05-01T18:21:02.172Z,38.63
2019-05-01T18:25:21.824Z,38.73
2019-05-01T18:29:35.562Z,39.97
2019-05-01T18:33:42.476Z,39.90
2019-05-01T18:37:52.641Z,39.77
2019-05-01T18:42:02.765Z,38.63
2019-05-01T18:46:13.087Z,39.40
2019-05-01T18:50:21.567Z,39.07
2019-05-01T18:54:30.398Z,40.87
2019-05-01T18:58:40.596Z,42.93
2019-05-01T19:02:49.314Z,41.20
2019-05-01T19:06:57.806Z,40.83
2019-05-01T19:11:12.638Z,42.13
2019-05-01T19:15:16.768Z,42.20
2019-05-01T19:19:25.315Z,50.27
2019-05-01T19:23:33.764Z,49.57
2019-05-01T19:27:42.253Z,42.13
2019-05-01T19:31:50.803Z,40.07
2019-05-01T19:36:02.505Z,39.53
2019-05-01T19:40:09.947Z,42.60
2019-05-01T19:44:20.015Z,40.17
2019-05-01T19:48:28.773Z,41.07
2019-05-01T19:52:37.833Z,38.70
2019-05-01T19:56:47.447Z,38.30
2019-05-01T20:00:58.056Z,38.53
2019-05-01T20:05:10.961Z,35.80
2019-05-01T20:09:18.747Z,35.10
2019-05-01T20:13:46.604Z,38.47
2019-05-01T20:17:55.059Z,40.57
2019-05-01T20:22:03.611Z,38.70
2019-05-01T20:26:12.091Z,37.70
2019-05-01T20:30:20.695Z,38.70
2019-05-01T20:34:29.431Z,37.20
2019-05-01T20:38:37.926Z,37.43
2019-05-01T20:42:46.381Z,36.30
2019-05-01T20:46:58.465Z,36.47
2019-05-01T20:51:05.471Z,36.67
2019-05-01T20:55:14.195Z,34.87
2019-05-01T20:59:22.670Z,36.37
2019-05-01T21:03:31.655Z,35.33
2019-05-01T21:07:41.800Z,35.27
2019-05-01T21:12:04.667Z,35.53
2019-05-01T21:16:03.819Z,33.37
2019-05-01T21:20:13.428Z,33.60
2019-05-01T21:24:23.926Z,34.37
2019-05-01T21:28:33.946Z,34.30
2019-05-01T21:32:44.316Z,34.93
2019-05-01T21:36:54.043Z,34.13
2019-05-01T21:41:02.892Z,32.67
2019-05-01T21:45:12.715Z,32.23
2019-05-01T21:49:22.931Z,35.63
2019-05-01T21:53:32.815Z,33.10
2019-05-01T21:57:41.556Z,33.87
2019-05-01T22:01:50.036Z,31.87
2019-05-01T22:05:58.507Z,30.80
2019-05-01T22:10:08.199Z,32.43
2019-05-01T22:14:31.130Z,31.57
2019-05-01T22:18:41.900Z,34.13
2019-05-01T22:22:52.175Z,33.17
2019-05-01T22:27:20.507Z,35.53
2019-05-01T22:31:33.391Z,32.93
2019-05-01T22:35:43.862Z,31.90
2019-05-01T22:44:18.044Z,32.30
2019-05-01T22:48:24.312Z,33.67
2019-05-01T22:52:32.804Z,33.17
2019-05-01T22:56:41.292Z,33.57
2019-05-01T23:00:54.410Z,33.50
2019-05-01T23:05:03.012Z,33.70
2019-05-01T23:09:13.584Z,34.50
2019-05-01T23:13:22.063Z,34.13
2019-05-01T23:17:34.955Z,30.00
2019-05-01T23:21:45.874Z,32.00
2019-05-01T23:25:52.608Z,31.10
2019-05-01T23:30:02.646Z,33.77
2019-05-01T23:34:11.182Z,30.70
2019-05-01T23:38:19.669Z,32.07
2019-05-01T23:42:28.162Z,32.47
2019-05-01T23:46:36.624Z,32.50
2019-05-01T23:50:45.160Z,31.47
2019-05-01T23:54:53.968Z,29.80
2019-05-01T23:59:02.448Z,32.40
